sensor_id;sensor_type;location;lat;lon;timestamp;P1;durP1;ratioP1;P2;durP2;ratioP2
13090;SDS011;6611;52.604;13.438;2023-04-24T00:01:43;3.30;;;2.63;;
13090;SDS011;6611;52.604;13.438;2023-04-24T00:06:46;4.50;;;3.10;;
13090;SDS011;6611;52.604;13.438;2023-04-24T00:11:49;4.80;;;3.40;;
13090;SDS011;6611;52.604;13.438;2023-04-24T00:16:51;3.33;;;3.03;;
13090;SDS011;6611;52.604;13.438;2023-04-24T00:21:54;4.57;;;3.43;;
13090;SDS011;6611;52.604;13.438;2023-04-24T00:26:56;4.23;;;3.13;;
13090;SDS011;6611;52.604;13.438;2023-04-24T00:31:57;6.03;;;3.07;;
13090;SDS011;6611;52.604;13.438;2023-04-24T00:37:00;4.50;;;3.43;;
13090;SDS011;6611;52.604;13.438;2023-04-24T00:42:02;3.53;;;3.17;;
13090;SDS011;6611;52.604;13.438;2023-04-24T00:47:06;4.13;;;3.30;;
13090;SDS011;6611;52.604;13.438;2023-04-24T00:52:10;4.57;;;3.30;;
13090;SDS011;6611;52.604;13.438;2023-04-24T00:57:12;3.73;;;3.30;;
13090;SDS011;6611;52.604;13.438;2023-04-24T01:02:15;4.87;;;3.83;;
13090;SDS011;6611;52.604;13.438;2023-04-24T01:07:19;4.40;;;3.77;;
13090;SDS011;6611;52.604;13.438;2023-04-24T01:12:21;3.57;;;3.10;;
13090;SDS011;6611;52.604;13.438;2023-04-24T01:17:23;4.93;;;3.77;;
13090;SDS011;6611;52.604;13.438;2023-04-24T01:22:26;5.03;;;3.70;;
13090;SDS011;6611;52.604;13.438;2023-04-24T01:27:28;4.07;;;3.50;;
13090;SDS011;6611;52.604;13.438;2023-04-24T01:32:29;3.90;;;2.77;;
13090;SDS011;6611;52.604;13.438;2023-04-24T01:37:33;3.60;;;3.30;;
13090;SDS011;6611;52.604;13.438;2023-04-24T01:42:37;3.87;;;3.00;;
13090;SDS011;6611;52.604;13.438;2023-04-24T01:47:39;4.17;;;3.60;;
13090;SDS011;6611;52.604;13.438;2023-04-24T01:52:42;4.27;;;3.33;;
13090;SDS011;6611;52.604;13.438;2023-04-24T01:57:44;5.13;;;3.67;;
13090;SDS011;6611;52.604;13.438;2023-04-24T02:02:45;5.03;;;3.50;;
13090;SDS011;6611;52.604;13.438;2023-04-24T02:07:48;4.50;;;3.17;;
13090;SDS011;6611;52.604;13.438;2023-04-24T02:12:50;3.73;;;3.00;;
13090;SDS011;6611;52.604;13.438;2023-04-24T02:17:52;4.60;;;3.40;;
13090;SDS011;6611;52.604;13.438;2023-04-24T02:22:55;3.73;;;3.33;;
13090;SDS011;6611;52.604;13.438;2023-04-24T02:27:56;4.60;;;3.30;;
13090;SDS011;6611;52.604;13.438;2023-04-24T02:32:58;3.70;;;3.03;;
13090;SDS011;6611;52.604;13.438;2023-04-24T02:38:01;4.27;;;3.40;;
13090;SDS011;6611;52.604;13.438;2023-04-24T02:43:03;4.97;;;3.33;;
13090;SDS011;6611;52.604;13.438;2023-04-24T02:48:04;3.47;;;3.13;;
13090;SDS011;6611;52.604;13.438;2023-04-24T02:53:07;3.70;;;3.30;;
13090;SDS011;6611;52.604;13.438;2023-04-24T02:58:09;4.23;;;3.40;;
13090;SDS011;6611;52.604;13.438;2023-04-24T03:03:12;4.27;;;3.37;;
13090;SDS011;6611;52.604;13.438;2023-04-24T03:08:17;5.53;;;3.63;;
13090;SDS011;6611;52.604;13.438;2023-04-24T03:13:18;4.73;;;4.00;;
13090;SDS011;6611;52.604;13.438;2023-04-24T03:18:20;5.17;;;3.70;;
13090;SDS011;6611;52.604;13.438;2023-04-24T03:23:23;4.40;;;4.00;;
13090;SDS011;6611;52.604;13.438;2023-04-24T03:28:25;6.93;;;4.40;;
13090;SDS011;6611;52.604;13.438;2023-04-24T03:33:27;5.53;;;4.33;;
13090;SDS011;6611;52.604;13.438;2023-04-24T03:38:30;6.23;;;4.03;;
13090;SDS011;6611;52.604;13.438;2023-04-24T03:43:32;4.83;;;3.93;;
13090;SDS011;6611;52.604;13.438;2023-04-24T03:48:34;4.50;;;3.70;;
13090;SDS011;6611;52.604;13.438;2023-04-24T03:53:37;4.70;;;3.73;;
13090;SDS011;6611;52.604;13.438;2023-04-24T03:58:39;4.90;;;3.80;;
13090;SDS011;6611;52.604;13.438;2023-04-24T04:03:41;4.37;;;3.83;;
13090;SDS011;6611;52.604;13.438;2023-04-24T04:08:44;5.33;;;4.10;;
13090;SDS011;6611;52.604;13.438;2023-04-24T04:13:45;5.80;;;4.40;;
13090;SDS011;6611;52.604;13.438;2023-04-24T04:18:48;5.23;;;4.20;;
13090;SDS011;6611;52.604;13.438;2023-04-24T04:23:51;4.37;;;3.97;;
13090;SDS011;6611;52.604;13.438;2023-04-24T04:28:53;5.97;;;4.50;;
13090;SDS011;6611;52.604;13.438;2023-04-24T04:33:54;4.87;;;3.90;;
13090;SDS011;6611;52.604;13.438;2023-04-24T04:38:57;4.00;;;3.27;;
13090;SDS011;6611;52.604;13.438;2023-04-24T04:44:00;3.17;;;2.87;;
13090;SDS011;6611;52.604;13.438;2023-04-24T04:49:04;4.10;;;3.10;;
13090;SDS011;6611;52.604;13.438;2023-04-24T04:54:07;3.83;;;3.43;;
13090;SDS011;6611;52.604;13.438;2023-04-24T04:59:09;3.80;;;3.40;;
13090;SDS011;6611;52.604;13.438;2023-04-24T05:04:11;3.13;;;2.83;;
13090;SDS011;6611;52.604;13.438;2023-04-24T05:09:14;5.40;;;3.70;;
13090;SDS011;6611;52.604;13.438;2023-04-24T05:14:16;3.67;;;2.97;;
13090;SDS011;6611;52.604;13.438;2023-04-24T05:19:19;3.17;;;2.63;;
13090;SDS011;6611;52.604;13.438;2023-04-24T05:24:22;4.00;;;2.50;;
13090;SDS011;6611;52.604;13.438;2023-04-24T05:29:23;2.70;;;2.50;;
13090;SDS011;6611;52.604;13.438;2023-04-24T05:34:26;3.33;;;2.60;;
13090;SDS011;6611;52.604;13.438;2023-04-24T05:39:29;2.60;;;2.17;;
13090;SDS011;6611;52.604;13.438;2023-04-24T05:44:31;2.53;;;1.97;;
13090;SDS011;6611;52.604;13.438;2023-04-24T05:49:32;1.93;;;1.73;;
13090;SDS011;6611;52.604;13.438;2023-04-24T05:54:35;2.10;;;1.80;;
13090;SDS011;6611;52.604;13.438;2023-04-24T05:59:37;2.63;;;1.93;;
13090;SDS011;6611;52.604;13.438;2023-04-24T06:04:39;2.17;;;1.83;;
13090;SDS011;6611;52.604;13.438;2023-04-24T06:09:42;1.93;;;1.60;;
13090;SDS011;6611;52.604;13.438;2023-04-24T06:14:44;2.63;;;1.87;;
13090;SDS011;6611;52.604;13.438;2023-04-24T06:19:46;1.97;;;1.30;;
13090;SDS011;6611;52.604;13.438;2023-04-24T06:24:49;1.50;;;1.40;;
13090;SDS011;6611;52.604;13.438;2023-04-24T06:29:50;1.50;;;1.33;;
13090;SDS011;6611;52.604;13.438;2023-04-24T06:34:54;1.73;;;1.40;;
13090;SDS011;6611;52.604;13.438;2023-04-24T06:39:57;1.50;;;1.30;;
13090;SDS011;6611;52.604;13.438;2023-04-24T06:44:59;2.50;;;1.10;;
13090;SDS011;6611;52.604;13.438;2023-04-24T06:50:00;1.17;;;1.00;;
13090;SDS011;6611;52.604;13.438;2023-04-24T06:55:04;1.43;;;1.00;;
13090;SDS011;6611;52.604;13.438;2023-04-24T07:00:07;0.80;;;0.80;;
13090;SDS011;6611;52.604;13.438;2023-04-24T07:05:09;1.03;;;0.83;;
13090;SDS011;6611;52.604;13.438;2023-04-24T07:10:14;1.37;;;1.00;;
13090;SDS011;6611;52.604;13.438;2023-04-24T07:15:15;0.77;;;0.70;;
13090;SDS011;6611;52.604;13.438;2023-04-24T07:20:17;1.60;;;0.83;;
13090;SDS011;6611;52.604;13.438;2023-04-24T07:25:21;1.23;;;0.80;;
13090;SDS011;6611;52.604;13.438;2023-04-24T07:30:23;0.80;;;0.70;;
13090;SDS011;6611;52.604;13.438;2023-04-24T07:35:25;0.50;;;0.50;;
13090;SDS011;6611;52.604;13.438;2023-04-24T07:40:29;0.53;;;0.50;;
13090;SDS011;6611;52.604;13.438;2023-04-24T07:45:30;0.67;;;0.50;;
13090;SDS011;6611;52.604;13.438;2023-04-24T07:50:36;0.50;;;0.40;;
13090;SDS011;6611;52.604;13.438;2023-04-24T07:55:39;0.83;;;0.60;;
13090;SDS011;6611;52.604;13.438;2023-04-24T08:00:40;0.53;;;0.50;;
13090;SDS011;6611;52.604;13.438;2023-04-24T08:05:42;0.40;;;0.40;;
13090;SDS011;6611;52.604;13.438;2023-04-24T08:10:45;0.37;;;0.37;;
13090;SDS011;6611;52.604;13.438;2023-04-24T08:15:47;1.10;;;1.00;;
13090;SDS011;6611;52.604;13.438;2023-04-24T08:20:48;1.00;;;0.50;;
13090;SDS011;6611;52.604;13.438;2023-04-24T08:25:51;1.23;;;0.50;;
13090;SDS011;6611;52.604;13.438;2023-04-24T08:30:53;1.30;;;0.73;;
13090;SDS011;6611;52.604;13.438;2023-04-24T08:35:55;0.40;;;0.40;;
13090;SDS011;6611;52.604;13.438;2023-04-24T08:40:58;0.50;;;0.40;;
13090;SDS011;6611;52.604;13.438;2023-04-24T08:46:01;0.80;;;0.47;;
13090;SDS011;6611;52.604;13.438;2023-04-24T08:51:03;0.20;;;0.20;;
13090;SDS011;6611;52.604;13.438;2023-04-24T08:56:09;0.40;;;0.40;;
13090;SDS011;6611;52.604;13.438;2023-04-24T09:01:12;0.60;;;0.37;;
13090;SDS011;6611;52.604;13.438;2023-04-24T09:06:14;0.50;;;0.40;;
13090;SDS011;6611;52.604;13.438;2023-04-24T09:11:18;0.73;;;0.50;;
13090;SDS011;6611;52.604;13.438;2023-04-24T09:16:20;0.57;;;0.57;;
13090;SDS011;6611;52.604;13.438;2023-04-24T09:21:23;1.00;;;0.90;;
13090;SDS011;6611;52.604;13.438;2023-04-24T09:26:26;0.63;;;0.57;;
13090;SDS011;6611;52.604;13.438;2023-04-24T09:31:32;0.80;;;0.40;;
13090;SDS011;6611;52.604;13.438;2023-04-24T09:36:34;0.37;;;0.37;;
13090;SDS011;6611;52.604;13.438;2023-04-24T09:41:44;0.30;;;0.30;;
13090;SDS011;6611;52.604;13.438;2023-04-24T09:46:49;0.40;;;0.40;;
13090;SDS011;6611;52.604;13.438;2023-04-24T09:51:51;0.60;;;0.33;;
13090;SDS011;6611;52.604;13.438;2023-04-24T09:56:55;0.53;;;0.40;;
13090;SDS011;6611;52.604;13.438;2023-04-24T10:01:57;0.40;;;0.40;;
13090;SDS011;6611;52.604;13.438;2023-04-24T10:06:59;1.13;;;0.50;;
13090;SDS011;6611;52.604;13.438;2023-04-24T10:12:02;0.93;;;0.53;;
13090;SDS011;6611;52.604;13.438;2023-04-24T10:17:04;0.80;;;0.60;;
13090;SDS011;6611;52.604;13.438;2023-04-24T10:22:07;1.03;;;0.60;;
13090;SDS011;6611;52.604;13.438;2023-04-24T10:27:10;0.50;;;0.50;;
13090;SDS011;6611;52.604;13.438;2023-04-24T10:32:15;0.70;;;0.70;;
13090;SDS011;6611;52.604;13.438;2023-04-24T10:37:17;0.80;;;0.43;;
13090;SDS011;6611;52.604;13.438;2023-04-24T10:42:20;0.77;;;0.53;;
13090;SDS011;6611;52.604;13.438;2023-04-24T10:47:22;1.53;;;0.57;;
13090;SDS011;6611;52.604;13.438;2023-04-24T10:52:28;0.50;;;0.40;;
13090;SDS011;6611;52.604;13.438;2023-04-24T10:58:02;2.40;;;0.43;;
13090;SDS011;6611;52.604;13.438;2023-04-24T11:03:04;1.23;;;0.50;;
13090;SDS011;6611;52.604;13.438;2023-04-24T11:08:10;1.43;;;0.60;;
13090;SDS011;6611;52.604;13.438;2023-04-24T11:13:15;0.33;;;0.33;;
13090;SDS011;6611;52.604;13.438;2023-04-24T11:18:17;0.30;;;0.30;;
13090;SDS011;6611;52.604;13.438;2023-04-24T11:23:19;1.00;;;0.50;;
13090;SDS011;6611;52.604;13.438;2023-04-24T11:28:24;0.60;;;0.60;;
13090;SDS011;6611;52.604;13.438;2023-04-24T11:33:26;2.13;;;0.60;;
13090;SDS011;6611;52.604;13.438;2023-04-24T11:38:28;0.57;;;0.53;;
13090;SDS011;6611;52.604;13.438;2023-04-24T11:43:31;0.70;;;0.70;;
13090;SDS011;6611;52.604;13.438;2023-04-24T11:48:34;0.93;;;0.70;;
13090;SDS011;6611;52.604;13.438;2023-04-24T11:53:40;2.30;;;0.70;;
13090;SDS011;6611;52.604;13.438;2023-04-24T11:58:44;1.40;;;0.83;;
13090;SDS011;6611;52.604;13.438;2023-04-24T12:03:47;0.97;;;0.80;;
13090;SDS011;6611;52.604;13.438;2023-04-24T12:08:49;1.83;;;0.60;;
13090;SDS011;6611;52.604;13.438;2023-04-24T12:13:56;1.60;;;0.87;;
13090;SDS011;6611;52.604;13.438;2023-04-24T12:18:58;1.53;;;0.60;;
13090;SDS011;6611;52.604;13.438;2023-04-24T12:24:00;0.83;;;0.73;;
13090;SDS011;6611;52.604;13.438;2023-04-24T12:29:03;1.60;;;0.90;;
13090;SDS011;6611;52.604;13.438;2023-04-24T12:34:16;0.80;;;0.80;;
13090;SDS011;6611;52.604;13.438;2023-04-24T12:39:19;1.90;;;0.70;;
13090;SDS011;6611;52.604;13.438;2023-04-24T12:44:31;0.77;;;0.50;;
13090;SDS011;6611;52.604;13.438;2023-04-24T12:49:34;1.07;;;0.60;;
13090;SDS011;6611;52.604;13.438;2023-04-24T12:54:36;1.10;;;0.70;;
13090;SDS011;6611;52.604;13.438;2023-04-24T12:59:39;0.50;;;0.50;;
13090;SDS011;6611;52.604;13.438;2023-04-24T13:04:41;0.50;;;0.50;;
13090;SDS011;6611;52.604;13.438;2023-04-24T13:09:43;1.43;;;0.57;;
13090;SDS011;6611;52.604;13.438;2023-04-24T13:14:47;0.57;;;0.57;;
13090;SDS011;6611;52.604;13.438;2023-04-24T13:19:49;1.23;;;0.67;;
13090;SDS011;6611;52.604;13.438;2023-04-24T13:24:51;0.50;;;0.50;;
13090;SDS011;6611;52.604;13.438;2023-04-24T13:29:54;0.97;;;0.80;;
13090;SDS011;6611;52.604;13.438;2023-04-24T13:34:56;0.60;;;0.50;;
13090;SDS011;6611;52.604;13.438;2023-04-24T13:39:58;0.50;;;0.50;;
13090;SDS011;6611;52.604;13.438;2023-04-24T13:45:01;1.27;;;0.53;;
13090;SDS011;6611;52.604;13.438;2023-04-24T13:50:03;1.73;;;0.50;;
13090;SDS011;6611;52.604;13.438;2023-04-24T13:55:06;0.67;;;0.63;;
13090;SDS011;6611;52.604;13.438;2023-04-24T14:00:10;0.87;;;0.60;;
13090;SDS011;6611;52.604;13.438;2023-04-24T14:05:13;1.30;;;0.50;;
13090;SDS011;6611;52.604;13.438;2023-04-24T14:10:15;0.90;;;0.70;;
13090;SDS011;6611;52.604;13.438;2023-04-24T14:15:18;0.70;;;0.60;;
13090;SDS011;6611;52.604;13.438;2023-04-24T14:20:20;0.53;;;0.47;;
13090;SDS011;6611;52.604;13.438;2023-04-24T14:25:22;0.80;;;0.60;;
13090;SDS011;6611;52.604;13.438;2023-04-24T14:30:25;1.20;;;0.50;;
13090;SDS011;6611;52.604;13.438;2023-04-24T14:35:26;0.40;;;0.40;;
13090;SDS011;6611;52.604;13.438;2023-04-24T14:40:28;0.77;;;0.50;;
13090;SDS011;6611;52.604;13.438;2023-04-24T14:45:32;0.40;;;0.40;;
13090;SDS011;6611;52.604;13.438;2023-04-24T14:50:34;1.47;;;0.50;;
13090;SDS011;6611;52.604;13.438;2023-04-24T14:55:36;1.13;;;0.40;;
13090;SDS011;6611;52.604;13.438;2023-04-24T15:00:39;1.13;;;0.50;;
13090;SDS011;6611;52.604;13.438;2023-04-24T15:05:41;0.80;;;0.50;;
13090;SDS011;6611;52.604;13.438;2023-04-24T15:10:42;1.17;;;0.70;;
13090;SDS011;6611;52.604;13.438;2023-04-24T15:15:47;1.67;;;1.07;;
13090;SDS011;6611;52.604;13.438;2023-04-24T15:20:48;2.10;;;0.63;;
13090;SDS011;6611;52.604;13.438;2023-04-24T15:25:50;0.73;;;0.70;;
13090;SDS011;6611;52.604;13.438;2023-04-24T15:30:53;0.60;;;0.60;;
13090;SDS011;6611;52.604;13.438;2023-04-24T15:35:55;0.60;;;0.60;;
13090;SDS011;6611;52.604;13.438;2023-04-24T15:40:56;0.70;;;0.60;;
13090;SDS011;6611;52.604;13.438;2023-04-24T15:45:59;0.60;;;0.60;;
13090;SDS011;6611;52.604;13.438;2023-04-24T15:51:01;0.90;;;0.80;;
13090;SDS011;6611;52.604;13.438;2023-04-24T15:56:03;0.70;;;0.60;;
13090;SDS011;6611;52.604;13.438;2023-04-24T16:01:06;0.70;;;0.70;;
13090;SDS011;6611;52.604;13.438;2023-04-24T16:06:08;1.13;;;0.80;;
13090;SDS011;6611;52.604;13.438;2023-04-24T16:11:10;1.00;;;0.70;;
13090;SDS011;6611;52.604;13.438;2023-04-24T16:16:13;0.87;;;0.83;;
13090;SDS011;6611;52.604;13.438;2023-04-24T16:21:14;0.97;;;0.80;;
13090;SDS011;6611;52.604;13.438;2023-04-24T16:26:16;0.80;;;0.70;;
13090;SDS011;6611;52.604;13.438;2023-04-24T16:31:19;1.97;;;1.57;;
13090;SDS011;6611;52.604;13.438;2023-04-24T16:36:21;0.90;;;0.77;;
13090;SDS011;6611;52.604;13.438;2023-04-24T16:41:22;0.80;;;0.70;;
13090;SDS011;6611;52.604;13.438;2023-04-24T16:46:26;1.07;;;0.80;;
13090;SDS011;6611;52.604;13.438;2023-04-24T16:51:27;1.30;;;0.80;;
13090;SDS011;6611;52.604;13.438;2023-04-24T16:56:29;2.30;;;0.70;;
13090;SDS011;6611;52.604;13.438;2023-04-24T17:01:32;0.90;;;0.70;;
13090;SDS011;6611;52.604;13.438;2023-04-24T17:06:34;2.33;;;0.90;;
13090;SDS011;6611;52.604;13.438;2023-04-24T17:11:36;0.70;;;0.70;;
13090;SDS011;6611;52.604;13.438;2023-04-24T17:16:39;0.73;;;0.70;;
13090;SDS011;6611;52.604;13.438;2023-04-24T17:21:41;0.87;;;0.63;;
13090;SDS011;6611;52.604;13.438;2023-04-24T17:26:42;0.67;;;0.67;;
13090;SDS011;6611;52.604;13.438;2023-04-24T17:31:45;1.63;;;0.80;;
13090;SDS011;6611;52.604;13.438;2023-04-24T17:36:47;2.63;;;0.87;;
13090;SDS011;6611;52.604;13.438;2023-04-24T17:41:49;0.90;;;0.90;;
13090;SDS011;6611;52.604;13.438;2023-04-24T17:46:52;2.13;;;0.90;;
13090;SDS011;6611;52.604;13.438;2023-04-24T17:51:54;0.90;;;0.70;;
13090;SDS011;6611;52.604;13.438;2023-04-24T17:56:56;1.83;;;1.20;;
13090;SDS011;6611;52.604;13.438;2023-04-24T18:01:59;0.87;;;0.80;;
13090;SDS011;6611;52.604;13.438;2023-04-24T18:07:01;0.87;;;0.80;;
13090;SDS011;6611;52.604;13.438;2023-04-24T18:12:03;1.13;;;0.83;;
13090;SDS011;6611;52.604;13.438;2023-04-24T18:17:06;1.33;;;0.90;;
13090;SDS011;6611;52.604;13.438;2023-04-24T18:22:08;1.10;;;0.80;;
13090;SDS011;6611;52.604;13.438;2023-04-24T18:27:10;0.50;;;0.50;;
13090;SDS011;6611;52.604;13.438;2023-04-24T18:32:13;0.57;;;0.30;;
13090;SDS011;6611;52.604;13.438;2023-04-24T18:37:15;0.20;;;0.20;;
13090;SDS011;6611;52.604;13.438;2023-04-24T18:42:17;0.30;;;0.30;;
13090;SDS011;6611;52.604;13.438;2023-04-24T18:47:20;0.30;;;0.30;;
13090;SDS011;6611;52.604;13.438;2023-04-24T18:52:22;0.20;;;0.20;;
13090;SDS011;6611;52.604;13.438;2023-04-24T18:57:24;0.57;;;0.50;;
13090;SDS011;6611;52.604;13.438;2023-04-24T19:02:27;0.30;;;0.30;;
13090;SDS011;6611;52.604;13.438;2023-04-24T19:07:29;1.03;;;0.30;;
13090;SDS011;6611;52.604;13.438;2023-04-24T19:12:31;0.93;;;0.30;;
13090;SDS011;6611;52.604;13.438;2023-04-24T19:17:34;0.33;;;0.33;;
13090;SDS011;6611;52.604;13.438;2023-04-24T19:22:36;0.57;;;0.50;;
13090;SDS011;6611;52.604;13.438;2023-04-24T19:27:37;2.20;;;0.60;;
13090;SDS011;6611;52.604;13.438;2023-04-24T19:32:40;0.40;;;0.30;;
13090;SDS011;6611;52.604;13.438;2023-04-24T19:37:42;0.50;;;0.40;;
13090;SDS011;6611;52.604;13.438;2023-04-24T19:42:44;0.57;;;0.50;;
13090;SDS011;6611;52.604;13.438;2023-04-24T19:47:47;0.50;;;0.50;;
13090;SDS011;6611;52.604;13.438;2023-04-24T19:52:49;1.20;;;0.50;;
13090;SDS011;6611;52.604;13.438;2023-04-24T19:57:51;1.07;;;0.77;;
13090;SDS011;6611;52.604;13.438;2023-04-24T20:02:54;0.60;;;0.50;;
13090;SDS011;6611;52.604;13.438;2023-04-24T20:07:56;0.60;;;0.50;;
13090;SDS011;6611;52.604;13.438;2023-04-24T20:12:57;0.93;;;0.77;;
13090;SDS011;6611;52.604;13.438;2023-04-24T20:18:01;0.50;;;0.50;;
13090;SDS011;6611;52.604;13.438;2023-04-24T20:23:03;0.90;;;0.80;;
13090;SDS011;6611;52.604;13.438;2023-04-24T20:28:05;0.90;;;0.70;;
13090;SDS011;6611;52.604;13.438;2023-04-24T20:33:08;1.00;;;0.70;;
13090;SDS011;6611;52.604;13.438;2023-04-24T20:38:10;1.00;;;0.70;;
13090;SDS011;6611;52.604;13.438;2023-04-24T20:43:11;1.60;;;0.90;;
13090;SDS011;6611;52.604;13.438;2023-04-24T20:48:15;1.73;;;0.90;;
13090;SDS011;6611;52.604;13.438;2023-04-24T20:53:16;1.90;;;1.00;;
13090;SDS011;6611;52.604;13.438;2023-04-24T20:58:18;1.53;;;1.07;;
13090;SDS011;6611;52.604;13.438;2023-04-24T21:03:22;1.40;;;1.17;;
13090;SDS011;6611;52.604;13.438;2023-04-24T21:08:24;1.73;;;1.10;;
13090;SDS011;6611;52.604;13.438;2023-04-24T21:13:25;1.30;;;1.13;;
13090;SDS011;6611;52.604;13.438;2023-04-24T21:18:28;1.23;;;1.00;;
13090;SDS011;6611;52.604;13.438;2023-04-24T21:23:30;1.47;;;1.23;;
13090;SDS011;6611;52.604;13.438;2023-04-24T21:28:32;1.30;;;1.20;;
13090;SDS011;6611;52.604;13.438;2023-04-24T21:33:35;1.67;;;1.47;;
13090;SDS011;6611;52.604;13.438;2023-04-24T21:38:37;3.07;;;1.70;;
13090;SDS011;6611;52.604;13.438;2023-04-24T21:43:39;3.00;;;1.70;;
13090;SDS011;6611;52.604;13.438;2023-04-24T21:48:43;4.33;;;1.53;;
13090;SDS011;6611;52.604;13.438;2023-04-24T21:53:44;1.90;;;1.70;;
13090;SDS011;6611;52.604;13.438;2023-04-24T21:58:46;2.70;;;1.83;;
13090;SDS011;6611;52.604;13.438;2023-04-24T22:03:49;5.83;;;2.10;;
13090;SDS011;6611;52.604;13.438;2023-04-24T22:08:51;3.30;;;1.73;;
13090;SDS011;6611;52.604;13.438;2023-04-24T22:13:52;3.20;;;2.17;;
13090;SDS011;6611;52.604;13.438;2023-04-24T22:18:56;5.07;;;2.30;;
13090;SDS011;6611;52.604;13.438;2023-04-24T22:23:57;3.83;;;2.27;;
13090;SDS011;6611;52.604;13.438;2023-04-24T22:28:59;2.50;;;2.30;;
13090;SDS011;6611;52.604;13.438;2023-04-24T22:34:02;5.60;;;2.83;;
13090;SDS011;6611;52.604;13.438;2023-04-24T22:39:04;4.53;;;2.33;;
13090;SDS011;6611;52.604;13.438;2023-04-24T22:44:06;3.97;;;2.27;;
13090;SDS011;6611;52.604;13.438;2023-04-24T22:49:09;2.70;;;2.10;;
13090;SDS011;6611;52.604;13.438;2023-04-24T22:54:11;4.30;;;2.23;;
13090;SDS011;6611;52.604;13.438;2023-04-24T22:59:12;3.60;;;2.23;;
13090;SDS011;6611;52.604;13.438;2023-04-24T23:04:15;2.27;;;2.07;;
13090;SDS011;6611;52.604;13.438;2023-04-24T23:09:17;4.20;;;2.30;;
13090;SDS011;6611;52.604;13.438;2023-04-24T23:14:19;3.00;;;1.93;;
13090;SDS011;6611;52.604;13.438;2023-04-24T23:19:22;2.70;;;2.23;;
13090;SDS011;6611;52.604;13.438;2023-04-24T23:24:23;5.30;;;2.60;;
13090;SDS011;6611;52.604;13.438;2023-04-24T23:29:25;3.97;;;2.10;;
13090;SDS011;6611;52.604;13.438;2023-04-24T23:34:28;4.87;;;2.10;;
13090;SDS011;6611;52.604;13.438;2023-04-24T23:39:33;4.03;;;2.33;;
13090;SDS011;6611;52.604;13.438;2023-04-24T23:44:34;3.60;;;2.13;;
13090;SDS011;6611;52.604;13.438;2023-04-24T23:49:38;2.40;;;1.73;;
13090;SDS011;6611;52.604;13.438;2023-04-24T23:54:40;3.67;;;1.60;;
13090;SDS011;6611;52.604;13.438;2023-04-24T23:59:41;2.13;;;1.80;;
